Time;durP1;ratioP1;P1;durP2;ratioP2;P2;SDS_P1;SDS_P2;PMS_P1;PMS_P2;Temp;Humidity;BMP_temperature;BMP_pressure;BME280_temperature;BME280_humidity;BME280_pressure;Samples;Min_cycle;Max_cycle;Signal;HPM_P1;HPM_P2
2023/10/14 00:01:28;;;;;;;247.03;237.47;;;;;;;20.75;61.33;100079.88;5030833;28;20075;-85
2023/10/14 00:03:54;;;;;;;252.10;242.35;;;;;;;20.75;60.87;100118.28;5033582;28;20337;-84
2023/10/14 00:06:20;;;;;;;251.07;241.32;;;;;;;20.72;61.16;100110.72;5035804;28;20037;-83
2023/10/14 00:08:58;;;;;;;248.20;238.55;;;;;;;20.72;61.39;100098.94;5051974;28;20039;-85
2023/10/14 00:11:33;;;;;;;250.88;241.18;;;;;;;20.70;60.93;100112.97;5052797;28;20041;-86
2023/10/14 00:13:59;;;;;;;250.05;240.40;;;;;;;20.70;61.08;100110.22;5033776;28;20132;-86
2023/10/14 00:19:04;;;;;;;248.18;238.65;;;;;;;20.67;60.93;100113.63;5054666;28;20067;-86
2023/10/14 00:21:35;;;;;;;243.95;234.60;;;;;;;20.66;61.14;100113.94;5037604;28;20029;-85
2023/10/14 00:24:03;;;;;;;248.85;238.95;;;;;;;20.65;60.79;100135.09;5045375;28;20033;-85
2023/10/14 00:26:29;;;;;;;254.43;244.52;;;;;;;20.64;60.68;100166.44;5037513;28;21286;-84
2023/10/14 00:31:40;;;;;;;247.10;237.52;;;;;;;20.62;61.11;100170.63;5051446;28;20044;-84
2023/10/14 00:34:06;;;;;;;251.18;241.50;;;;;;;20.61;61.18;100169.00;5043264;28;20460;-84
2023/10/14 00:36:32;;;;;;;253.00;243.27;;;;;;;20.60;60.74;100170.94;5049011;28;20071;-84
2023/10/14 00:38:57;;;;;;;248.52;238.93;;;;;;;20.59;60.94;100169.34;5052621;28;20029;-83
2023/10/14 00:41:27;;;;;;;249.05;239.48;;;;;;;20.58;61.23;100178.69;5019138;28;20052;-82
2023/10/14 00:43:54;;;;;;;249.70;240.00;;;;;;;20.57;61.03;100182.56;5052928;28;20384;-81
2023/10/14 00:46:23;;;;;;;252.10;242.45;;;;;;;20.58;61.02;100184.16;5033509;28;20421;-81
2023/10/14 00:48:58;;;;;;;247.50;237.88;;;;;;;20.56;60.56;100185.63;5034643;28;20044;-81
2023/10/14 00:51:26;;;;;;;248.30;238.68;;;;;;;20.52;60.72;100194.47;5032341;28;20033;-81
2023/10/14 00:53:52;;;;;;;248.68;239.02;;;;;;;20.47;61.11;100194.63;5033301;28;20073;-80
2023/10/14 00:56:31;;;;;;;242.00;232.60;;;;;;;20.46;60.79;100203.19;5036407;28;20032;-81
2023/10/14 00:59:03;;;;;;;;;;;;;;;20.42;60.48;100207.72;5051142;28;20033;-81
2023/10/14 01:01:47;;;;;;;233.88;224.90;;;;;;;20.36;60.64;100223.53;5050635;28;19913;-81
2023/10/14 01:04:19;;;;;;;238.95;229.77;;;;;;;20.28;61.13;100235.28;5034831;28;20033;-82
2023/10/14 01:10:04;;;;;;;239.60;230.35;;;;;;;20.21;61.30;100237.69;5065024;28;20047;-83
2023/10/14 01:12:27;;;;;;;238.27;229.13;;;;;;;20.17;61.01;100247.69;5053676;28;20051;-82
2023/10/14 01:14:54;;;;;;;243.25;233.55;;;;;;;20.16;61.14;100244.16;5050981;28;20037;-82
2023/10/14 01:17:30;;;;;;;241.95;232.63;;;;;;;20.16;60.92;100254.28;5052457;28;20036;-80
2023/10/14 01:19:59;;;;;;;243.85;234.43;;;;;;;20.15;61.16;100267.19;5044319;28;20021;-81
2023/10/14 01:22:26;;;;;;;242.77;233.23;;;;;;;20.16;60.69;100274.31;5041923;28;20029;-80
2023/10/14 01:24:56;;;;;;;241.10;231.77;;;;;;;20.16;61.23;100287.19;5045476;28;20029;-81
2023/10/14 01:27:33;;;;;;;241.00;231.75;;;;;;;20.13;61.05;100293.31;5050536;28;20098;-80
2023/10/14 01:29:59;;;;;;;235.87;226.73;;;;;;;20.09;61.00;100307.66;5043411;28;20032;-80
2023/10/14 01:35:12;;;;;;;239.65;230.43;;;;;;;20.03;60.50;100313.59;5029150;28;20509;-81
2023/10/14 01:37:44;;;;;;;241.95;232.68;;;;;;;20.01;60.78;100316.66;5047548;28;20025;-80
2023/10/14 01:40:49;;;;;;;240.75;231.48;;;;;;;20.00;60.98;100327.94;5036907;28;20028;-80
2023/10/14 01:43:08;;;;;;;237.27;228.05;;;;;;;19.99;60.56;100340.84;5026111;28;20757;-81
2023/10/14 01:45:39;;;;;;;241.95;232.68;;;;;;;19.99;60.67;100348.28;5034267;28;20040;-79
2023/10/14 01:50:57;;;;;;;;;;;;;;;19.95;60.41;100355.50;5049154;28;20078;-79
2023/10/14 01:53:29;;;;;;;225.43;216.50;;;;;;;19.94;60.83;100357.44;5050487;28;19913;-79
2023/10/14 01:55:55;;;;;;;233.73;224.02;;;;;;;19.94;60.75;100364.84;5050337;28;20056;-80
2023/10/14 01:58:22;;;;;;;239.77;230.30;;;;;;;19.93;60.57;100374.19;5048588;28;20524;-80
2023/10/14 02:01:04;;;;;;;231.88;222.80;;;;;;;19.93;60.31;100380.47;5047813;28;20111;-80
2023/10/14 02:03:33;;;;;;;233.80;224.50;;;;;;;19.93;60.65;100385.16;5036117;28;20032;-80
2023/10/14 02:05:58;;;;;;;;;;;;;;;19.91;60.29;100398.34;5050891;28;20023;-79
2023/10/14 02:08:24;;;;;;;227.00;217.57;;;;;;;19.89;60.81;100395.94;5046390;28;20018;-79
2023/10/14 02:10:50;;;;;;;229.55;220.63;;;;;;;19.86;60.78;100410.28;5042902;28;20040;-80
2023/10/14 02:13:17;;;;;;;233.43;224.02;;;;;;;19.85;60.46;100420.41;5037995;28;20061;-79
2023/10/14 02:15:50;;;;;;;237.65;228.43;;;;;;;19.84;60.58;100427.03;5038588;28;20534;-78
2023/10/14 02:18:22;;;;;;;225.45;216.75;;;;;;;19.83;60.22;100433.66;5049972;28;20036;-79
2023/10/14 02:21:32;;;;;;;230.30;221.45;;;;;;;19.83;60.72;100446.50;5029982;28;20037;-80
2023/10/14 02:23:44;;;;;;;230.82;221.85;;;;;;;19.80;60.66;100453.44;5035536;28;20403;-79
2023/10/14 02:26:30;;;;;;;231.68;222.75;;;;;;;19.78;60.50;100447.47;5035667;28;20123;-79
2023/10/14 02:28:58;;;;;;;231.88;222.65;;;;;;;19.78;60.57;100454.88;5030056;28;20065;-79
2023/10/14 02:31:35;;;;;;;233.10;224.13;;;;;;;19.75;60.28;100469.19;5031339;28;20132;-79
2023/10/14 02:34:06;;;;;;;234.10;224.98;;;;;;;19.72;60.33;100472.56;5037062;28;20030;-78
2023/10/14 02:36:50;;;;;;;236.73;227.52;;;;;;;19.69;59.91;100475.94;5037848;28;20083;-79
2023/10/14 02:39:26;;;;;;;230.52;221.57;;;;;;;19.64;60.44;100472.16;5040739;28;20131;-79
2023/10/14 02:42:06;;;;;;;234.13;224.25;;;;;;;19.63;59.99;100484.25;5040185;28;20090;-78
2023/10/14 02:44:52;;;;;;;231.27;222.40;;;;;;;19.60;60.30;100500.47;5049667;28;20040;-78
2023/10/14 02:47:21;;;;;;;226.15;217.23;;;;;;;19.55;59.74;100497.84;5050450;28;20033;-78
2023/10/14 02:49:53;;;;;;;220.50;211.93;;;;;;;19.54;60.00;100512.69;5061320;28;20036;-78
2023/10/14 02:52:30;;;;;;;220.88;212.30;;;;;;;19.52;59.97;100523.94;5053046;28;20037;-78
2023/10/14 02:55:50;;;;;;;214.73;206.27;;;;;;;19.52;60.34;100531.34;5044309;28;20171;-78
2023/10/14 02:57:45;;;;;;;212.88;204.63;;;;;;;19.51;60.03;100546.16;5030984;28;20041;-78
2023/10/14 03:00:28;;;;;;;220.23;211.35;;;;;;;19.50;59.77;100558.22;5041919;28;20040;-78
2023/10/14 03:03:02;;;;;;;227.23;218.45;;;;;;;19.49;60.08;100571.13;5034160;28;20466;-78
2023/10/14 03:05:35;;;;;;;219.40;210.88;;;;;;;19.46;59.58;100572.53;5050598;28;20056;-78
2023/10/14 03:08:12;;;;;;;222.98;214.10;;;;;;;19.46;59.54;100577.22;5047114;28;20051;-78
2023/10/14 03:10:45;;;;;;;224.30;214.85;;;;;;;19.45;60.11;100579.16;5035535;28;20120;-77
2023/10/14 03:13:14;;;;;;;226.63;217.75;;;;;;;19.43;59.61;100586.88;5052748;28;20114;-78
2023/10/14 03:15:44;;;;;;;228.30;219.40;;;;;;;19.43;59.82;100588.78;5054130;28;20116;-78
2023/10/14 03:18:19;;;;;;;229.23;220.10;;;;;;;19.41;59.90;100601.97;5052289;28;20025;-78
2023/10/14 03:23:25;;;;;;;224.55;215.68;;;;;;;19.38;59.28;100617.09;5033726;28;20401;-78
2023/10/14 03:26:05;;;;;;;229.73;220.70;;;;;;;19.37;59.57;100614.66;5052750;28;20033;-78
2023/10/14 03:28:37;;;;;;;232.55;223.00;;;;;;;19.35;59.67;100628.66;5044569;28;20143;-78
2023/10/14 03:31:07;;;;;;;224.25;214.90;;;;;;;19.33;59.23;100641.84;5019379;28;20119;-78
2023/10/14 03:33:43;;;;;;;223.95;215.23;;;;;;;19.31;59.72;100632.31;5034400;28;20477;-78
2023/10/14 03:36:15;;;;;;;212.68;204.20;;;;;;;19.29;59.45;100637.28;5047471;28;20083;-78
2023/10/14 03:38:42;;;;;;;224.88;215.98;;;;;;;19.27;59.31;100642.25;5035987;28;20041;-78
2023/10/14 03:41:18;;;;;;;222.00;213.13;;;;;;;19.25;59.06;100658.97;5052114;28;20560;-78
2023/10/14 03:43:58;;;;;;;221.73;213.18;;;;;;;19.22;59.24;100665.84;5053890;28;20067;-79
2023/10/14 03:48:56;;;;;;;224.30;214.95;;;;;;;19.16;58.95;100672.56;5033981;28;20041;-80
2023/10/14 03:51:25;;;;;;;226.30;217.13;;;;;;;19.15;59.06;100673.69;5016103;28;20513;-78
2023/10/14 03:53:52;;;;;;;224.13;215.13;;;;;;;19.14;59.24;100676.72;5041032;28;20040;-78
2023/10/14 04:04:24;;;;;;;218.32;209.57;;;;;;;19.05;59.09;100703.16;4937953;29;20054;-78
2023/10/14 04:07:40;;;;;;;222.63;213.95;;;;;;;19.02;59.11;100694.44;4953946;29;20035;-77
2023/10/14 04:09:44;;;;;;;224.77;215.80;;;;;;;19.01;58.53;100700.22;4934471;29;20521;-76
2023/10/14 04:15:33;;;;;;;214.07;205.68;;;;;;;18.94;58.95;100713.47;4952590;29;20517;-76
2023/10/14 04:17:58;;;;;;;220.35;211.65;;;;;;;18.93;58.57;100717.34;4952941;29;20039;-77
2023/10/14 04:20:33;;;;;;;216.13;206.90;;;;;;;18.89;59.01;100725.31;4943696;28;20070;-76
2023/10/14 04:23:05;;;;;;;214.50;205.88;;;;;;;18.88;58.66;100725.63;4953291;29;20038;-77
2023/10/14 04:25:56;;;;;;;216.50;207.73;;;;;;;18.88;58.70;100736.56;4936828;29;20126;-79
2023/10/14 04:28:30;;;;;;;212.30;203.77;;;;;;;18.84;58.99;100735.53;4953059;29;20142;-76
2023/10/14 04:31:06;;;;;;;212.95;203.85;;;;;;;18.80;58.87;100735.31;4936221;29;20027;-76
2023/10/14 04:33:44;;;;;;;226.98;216.82;;;;;;;18.78;59.00;100738.34;4925950;28;20046;-77
2023/10/14 04:36:55;;;;;;;216.40;207.40;;;;;;;18.77;58.94;100752.31;4924724;29;20471;-76
2023/10/14 04:39:16;;;;;;;209.65;201.40;;;;;;;18.75;58.36;100770.94;4932916;29;20055;-76
2023/10/14 04:44:44;;;;;;;212.68;203.88;;;;;;;18.69;58.29;100775.66;4931399;28;20126;-76
2023/10/14 04:47:19;;;;;;;211.13;202.75;;;;;;;18.68;58.83;100778.72;4936742;29;20043;-77
2023/10/14 04:49:52;;;;;;;208.60;199.70;;;;;;;18.66;58.26;100786.41;4952507;29;20039;-75
2023/10/14 04:52:19;;;;;;;206.82;198.60;;;;;;;18.64;58.32;100788.63;4953034;29;20066;-77
2023/10/14 04:55:06;;;;;;;205.98;197.68;;;;;;;18.62;58.26;100785.34;4952424;29;20054;-77
2023/10/14 04:58:06;;;;;;;209.02;200.52;;;;;;;18.61;58.26;100790.00;4942510;29;20023;-77
2023/10/14 05:01:00;;;;;;;209.82;200.93;;;;;;;18.57;58.36;100802.66;4949015;29;20070;-77
2023/10/14 05:03:32;;;;;;;207.50;199.15;;;;;;;18.53;58.31;100799.69;4950792;29;20091;-77
2023/10/14 05:08:56;;;;;;;206.20;198.02;;;;;;;18.49;58.11;100817.78;4943089;29;20043;-76
2023/10/14 05:11:26;;;;;;;208.55;199.60;;;;;;;18.45;58.44;100814.03;4933709;29;20110;-76
2023/10/14 05:16:53;;;;;;;209.15;200.65;;;;;;;18.42;57.99;100822.00;4934755;29;20392;-77
2023/10/14 05:19:26;;;;;;;211.63;202.85;;;;;;;18.38;58.25;100825.31;4937002;29;20074;-77
2023/10/14 05:22:03;;;;;;;208.63;199.20;;;;;;;18.37;58.37;100834.66;4933645;29;20087;-77
2023/10/14 05:24:31;;;;;;;207.38;199.07;;;;;;;18.34;58.32;100843.44;4934728;29;20110;-76
2023/10/14 05:27:00;;;;;;;214.85;206.05;;;;;;;18.32;58.61;100851.13;4935408;29;20040;-79
2023/10/14 05:29:27;;;;;;;216.00;206.60;;;;;;;18.30;58.02;100853.34;4930359;29;20035;-76
2023/10/14 05:32:04;;;;;;;209.52;201.15;;;;;;;18.28;58.42;100855.53;4950403;29;20149;-77
2023/10/14 05:34:33;;;;;;;209.75;201.15;;;;;;;18.27;58.01;100864.84;4934023;29;20039;-77
2023/10/14 05:37:00;;;;;;;;;;;;;;;18.25;58.14;100863.53;4947049;29;20035;-76
2023/10/14 05:39:27;;;;;;;201.95;193.68;;;;;;;18.21;58.21;100863.28;4958727;28;19919;-77
2023/10/14 05:41:59;;;;;;;203.43;194.63;;;;;;;18.20;57.88;100864.38;4935989;29;20024;-77
2023/10/14 05:44:29;;;;;;;205.00;196.75;;;;;;;18.17;58.25;100870.44;4945773;28;20032;-77
2023/10/14 05:46:56;;;;;;;214.48;205.88;;;;;;;18.16;57.69;100877.00;4945664;29;20031;-76
2023/10/14 05:49:24;;;;;;;204.15;196.00;;;;;;;18.14;58.25;100876.47;4937141;29;20538;-76
2023/10/14 05:51:52;;;;;;;206.85;198.45;;;;;;;18.12;58.02;100886.91;4953083;28;20042;-75
2023/10/14 05:54:22;;;;;;;205.43;197.30;;;;;;;18.10;57.90;100886.38;4941899;28;20115;-76
2023/10/14 05:56:51;;;;;;;199.90;191.50;;;;;;;18.08;57.90;100894.03;4929017;29;20039;-75
2023/10/14 05:59:17;;;;;;;204.90;195.70;;;;;;;18.06;57.87;100896.25;4932896;29;20122;-75
2023/10/14 06:01:46;;;;;;;203.30;195.10;;;;;;;18.06;58.11;100908.00;4932648;29;20147;-75
2023/10/14 06:04:13;;;;;;;207.82;199.00;;;;;;;18.03;57.70;100913.22;4942578;29;20074;-76
2023/10/14 06:06:40;;;;;;;211.80;203.10;;;;;;;18.01;57.72;100924.44;4946860;29;20050;-75
2023/10/14 06:09:08;;;;;;;204.50;195.43;;;;;;;17.99;57.96;100923.91;4951102;28;20083;-75
2023/10/14 06:11:33;;;;;;;204.13;195.98;;;;;;;17.97;57.63;100934.34;4948657;29;20459;-75
2023/10/14 06:13:59;;;;;;;200.27;192.25;;;;;;;17.94;57.46;100933.00;4936984;29;20035;-76
2023/10/14 06:16:25;;;;;;;201.68;193.38;;;;;;;17.93;57.76;100946.94;4941349;29;20032;-75
2023/10/14 06:18:56;;;;;;;200.40;192.32;;;;;;;17.90;57.99;100940.13;4945302;29;20031;-75
2023/10/14 06:21:27;;;;;;;205.25;197.15;;;;;;;17.88;57.45;100950.53;4932372;29;20047;-76
2023/10/14 06:23:55;;;;;;;199.18;191.20;;;;;;;17.87;57.73;100956.28;4917478;29;20043;-76
2023/10/14 06:26:20;;;;;;;195.30;187.02;;;;;;;17.85;57.38;100962.03;4934167;29;20031;-75
2023/10/14 06:28:48;;;;;;;196.90;188.80;;;;;;;17.84;57.87;100967.78;4917699;29;20058;-75
2023/10/14 06:31:15;;;;;;;198.60;189.50;;;;;;;17.82;57.50;100972.72;4951089;29;20127;-75
2023/10/14 06:33:43;;;;;;;199.10;190.98;;;;;;;17.79;57.75;100979.56;4909232;29;20099;-76
2023/10/14 06:36:14;;;;;;;195.82;187.52;;;;;;;17.78;57.81;100986.09;4934553;29;20091;-76
2023/10/14 06:38:45;;;;;;;196.23;188.30;;;;;;;17.76;57.41;100993.75;4940305;29;20470;-76
2023/10/14 06:41:13;;;;;;;196.70;188.77;;;;;;;17.73;57.61;100997.88;4948527;29;20456;-77
2023/10/14 06:43:39;;;;;;;197.52;189.43;;;;;;;17.72;57.51;100998.19;4933847;29;20476;-76
2023/10/14 06:46:05;;;;;;;197.98;189.60;;;;;;;17.70;57.79;101003.09;4937070;29;20043;-76
2023/10/14 06:48:34;;;;;;;194.13;186.30;;;;;;;17.68;57.48;101008.84;4953299;28;20109;-76
2023/10/14 06:51:01;;;;;;;193.85;186.10;;;;;;;17.66;57.80;101021.97;4939868;29;20442;-76
2023/10/14 06:53:28;;;;;;;195.35;187.48;;;;;;;17.65;57.35;101019.53;4955757;29;20031;-77
2023/10/14 06:55:54;;;;;;;191.90;183.85;;;;;;;17.63;57.76;101033.47;4952245;29;20036;-77
2023/10/14 06:58:21;;;;;;;205.07;196.57;;;;;;;17.62;57.52;101025.56;4945360;28;20057;-77
2023/10/14 07:00:48;;;;;;;194.13;186.27;;;;;;;17.60;57.39;101030.50;4954447;29;20043;-77
2023/10/14 07:03:15;;;;;;;193.77;185.98;;;;;;;17.58;57.55;101035.41;4939248;29;20145;-78
2023/10/14 07:05:48;;;;;;;193.52;185.40;;;;;;;17.55;57.35;101041.44;4955382;28;20049;-77
2023/10/14 07:08:15;;;;;;;189.60;181.93;;;;;;;17.53;57.56;101048.00;4944872;29;20039;-76
2023/10/14 07:10:40;;;;;;;196.88;188.93;;;;;;;17.51;57.51;101046.63;4938121;28;20035;-75
2023/10/14 07:13:06;;;;;;;197.45;189.13;;;;;;;17.50;57.69;101055.94;4951964;28;20091;-76
2023/10/14 07:15:36;;;;;;;190.50;182.65;;;;;;;17.48;57.23;101058.13;4939089;29;20041;-76
2023/10/14 07:18:02;;;;;;;192.38;184.35;;;;;;;17.46;57.40;101066.63;4954662;29;20467;-75
2023/10/14 07:20:31;;;;;;;188.80;180.82;;;;;;;17.45;57.71;101069.63;4935709;29;20055;-75
2023/10/14 07:22:58;;;;;;;186.43;178.77;;;;;;;17.42;57.23;101073.72;4927594;29;20432;-77
2023/10/14 07:25:34;;;;;;;186.88;179.32;;;;;;;17.41;57.24;101082.19;4935870;29;20028;-76
2023/10/14 07:28:07;;;;;;;188.77;181.23;;;;;;;17.40;57.25;101086.03;4935298;29;20031;-77
2023/10/14 07:30:34;;;;;;;189.55;181.65;;;;;;;17.36;57.24;101088.53;4938651;29;20094;-78
2023/10/14 07:33:01;;;;;;;190.75;182.30;;;;;;;17.34;57.25;101098.06;4950309;29;20097;-75
2023/10/14 07:35:26;;;;;;;188.63;180.93;;;;;;;17.31;57.34;101093.97;4947940;29;20046;-75
2023/10/14 07:37:52;;;;;;;191.88;184.20;;;;;;;17.28;57.35;101100.00;4953813;29;20035;-76
2023/10/14 07:40:30;;;;;;;184.05;176.48;;;;;;;17.25;57.54;101103.28;4937870;29;20071;-77
2023/10/14 07:43:13;;;;;;;184.05;176.63;;;;;;;17.22;57.37;101107.41;4953209;29;20487;-82
2023/10/14 07:45:44;;;;;;;185.63;177.93;;;;;;;17.20;57.71;101109.59;4944610;29;20090;-79
2023/10/14 07:48:17;;;;;;;183.32;175.82;;;;;;;17.19;57.61;101115.34;4935032;28;20130;-77
2023/10/14 07:50:46;;;;;;;181.88;174.52;;;;;;;17.17;57.57;101114.78;4950749;29;20035;-75
2023/10/14 07:53:14;;;;;;;186.77;178.57;;;;;;;17.15;57.66;101117.78;4937603;29;20041;-75
2023/10/14 07:55:40;;;;;;;;;;;;;;;17.14;57.30;101112.63;4940736;28;20047;-77
2023/10/14 07:58:09;;;;;;;177.20;169.70;;;;;;;17.12;57.58;101117.53;4952118;29;19922;-74
2023/10/14 08:00:39;;;;;;;177.02;169.50;;;;;;;17.08;57.81;101123.56;4952516;29;20438;-75
2023/10/14 08:03:07;;;;;;;181.68;174.43;;;;;;;17.07;57.80;101115.63;4960852;28;20084;-76
2023/10/14 08:05:40;;;;;;;182.10;174.75;;;;;;;17.06;57.92;101125.75;4945191;28;20046;-76
2023/10/14 08:08:07;;;;;;;179.27;171.90;;;;;;;17.05;57.52;101132.28;4949767;29;20060;-77
2023/10/14 08:10:32;;;;;;;181.95;174.60;;;;;;;17.05;57.51;101132.28;4921229;29;20051;-75
2023/10/14 08:13:04;;;;;;;182.25;174.35;;;;;;;17.04;57.74;101143.50;4937471;28;20032;-75
2023/10/14 08:15:30;;;;;;;181.50;173.15;;;;;;;17.02;57.35;101142.94;4947685;29;20115;-76
2023/10/14 08:18:00;;;;;;;194.35;186.45;;;;;;;17.00;57.38;101145.13;4950445;29;20031;-79
2023/10/14 08:20:30;;;;;;;184.23;176.50;;;;;;;16.97;57.46;101142.94;4938878;29;20039;-75
2023/10/14 08:22:57;;;;;;;183.45;175.40;;;;;;;16.96;57.28;101144.88;4931506;29;20047;-80
2023/10/14 08:25:25;;;;;;;185.68;177.93;;;;;;;16.93;57.59;101150.03;4939716;29;20130;-76
2023/10/14 08:27:57;;;;;;;181.15;173.27;;;;;;;16.93;57.83;101169.16;4932755;29;20050;-76
2023/10/14 08:30:32;;;;;;;179.93;172.68;;;;;;;16.91;57.82;101168.59;4946476;28;20031;-75
2023/10/14 08:32:58;;;;;;;176.35;169.15;;;;;;;16.87;57.09;101166.41;4942410;29;20039;-78
2023/10/14 08:35:27;;;;;;;172.18;165.23;;;;;;;16.86;57.31;101162.06;4946229;28;20183;-76
2023/10/14 08:37:55;;;;;;;174.70;167.45;;;;;;;16.85;57.36;101170.50;4948356;29;20554;-76
2023/10/14 08:40:25;;;;;;;173.45;166.45;;;;;;;16.84;57.36;101185.25;4951415;28;20046;-77
2023/10/14 08:43:06;;;;;;;180.35;172.85;;;;;;;16.82;57.60;101187.44;4950601;29;20044;-79
2023/10/14 08:45:36;;;;;;;170.45;162.30;;;;;;;16.78;57.13;101198.09;4950229;29;20106;-73
2023/10/14 08:48:03;;;;;;;172.65;165.05;;;;;;;16.75;56.87;101205.97;4943679;28;20044;-75
2023/10/14 08:50:34;;;;;;;168.88;161.98;;;;;;;16.71;57.10;101204.88;4942566;29;20438;-74
2023/10/14 08:53:09;;;;;;;176.18;168.88;;;;;;;16.64;55.95;101205.13;4946461;29;20043;-74
2023/10/14 08:55:36;;;;;;;168.50;161.30;;;;;;;16.59;56.23;101205.94;4952019;28;20475;-76
2023/10/14 08:58:05;;;;;;;178.02;170.52;;;;;;;16.60;56.33;101204.84;4948259;28;20054;-75
2023/10/14 09:00:35;;;;;;;169.70;162.50;;;;;;;16.59;56.51;101208.69;4943435;29;20066;-76
2023/10/14 09:03:06;;;;;;;167.65;160.57;;;;;;;16.57;56.08;101215.50;4937860;28;20051;-76
2023/10/14 09:05:39;;;;;;;169.18;162.13;;;;;;;16.55;56.19;101217.66;4947224;29;20489;-77
2023/10/14 09:08:10;;;;;;;174.25;166.63;;;;;;;16.54;56.34;101216.84;4947698;28;20075;-75
2023/10/14 09:10:36;;;;;;;167.25;160.05;;;;;;;16.54;56.73;101222.31;4948047;28;20047;-76
2023/10/14 09:13:19;;;;;;;171.23;163.80;;;;;;;16.54;56.65;101237.88;4947547;28;20048;-77
2023/10/14 09:15:45;;;;;;;170.38;163.27;;;;;;;16.54;56.96;101230.50;4951295;29;20043;-78
2023/10/14 09:18:17;;;;;;;168.25;161.15;;;;;;;16.53;57.06;101225.31;4931785;29;20048;-74
2023/10/14 09:20:43;;;;;;;167.05;160.23;;;;;;;16.52;57.03;101238.13;4952155;29;20110;-76
2023/10/14 09:23:21;;;;;;;168.38;161.32;;;;;;;16.52;57.19;101227.22;4948099;29;20051;-74
2023/10/14 09:25:49;;;;;;;168.80;161.90;;;;;;;16.51;57.11;101231.03;4940491;28;20035;-73
2023/10/14 09:28:22;;;;;;;166.48;159.73;;;;;;;16.52;57.33;101238.13;4931489;29;20047;-75
2023/10/14 09:30:49;;;;;;;166.35;159.40;;;;;;;16.51;57.28;101238.41;4941702;29;20031;-75
2023/10/14 09:33:22;;;;;;;169.35;162.40;;;;;;;16.51;57.68;101241.13;4944874;29;20043;-75
2023/10/14 09:35:49;;;;;;;168.90;161.48;;;;;;;16.51;57.51;101241.94;4948235;28;20463;-76
2023/10/14 09:38:19;;;;;;;177.05;169.40;;;;;;;16.51;57.23;101244.69;4938641;29;20047;-74
2023/10/14 09:40:57;;;;;;;173.88;166.80;;;;;;;16.50;57.77;101247.66;4946678;29;20033;-74
2023/10/14 09:43:24;;;;;;;170.32;163.40;;;;;;;16.49;57.68;101249.56;4946256;29;20047;-74
2023/10/14 09:45:57;;;;;;;167.10;160.32;;;;;;;16.48;57.40;101256.13;4940515;28;20067;-75
2023/10/14 09:48:31;;;;;;;170.73;163.85;;;;;;;16.48;57.46;101261.59;4937523;29;20039;-75
2023/10/14 09:51:00;;;;;;;170.23;163.10;;;;;;;16.47;57.46;101261.84;4940245;29;20383;-73
2023/10/14 09:53:27;;;;;;;163.85;157.07;;;;;;;16.46;57.35;101257.50;4943637;28;20036;-74
2023/10/14 09:56:04;;;;;;;168.82;161.68;;;;;;;16.43;56.24;101256.94;4945659;29;20039;-73
2023/10/14 09:58:30;;;;;;;171.75;164.52;;;;;;;16.36;55.61;101266.47;4944145;28;20027;-73
2023/10/14 10:00:58;;;;;;;168.68;161.65;;;;;;;16.33;54.84;101266.97;4948567;28;20040;-74
2023/10/14 10:03:24;;;;;;;167.77;160.70;;;;;;;16.31;54.82;101271.91;4950243;29;20047;-73
2023/10/14 10:06:08;;;;;;;165.95;158.98;;;;;;;16.30;55.03;101281.16;4939466;29;20074;-76
2023/10/14 10:08:52;;;;;;;169.90;163.00;;;;;;;16.30;55.61;101279.22;4937171;29;20125;-73
2023/10/14 10:11:23;;;;;;;160.32;153.68;;;;;;;16.30;55.54;101268.31;4934139;29;20032;-73
2023/10/14 10:13:53;;;;;;;169.07;162.18;;;;;;;16.31;55.60;101272.72;4932750;29;20922;-77
2023/10/14 10:16:20;;;;;;;165.40;158.45;;;;;;;16.33;55.59;101276.00;4937201;29;20032;-73
2023/10/14 10:18:58;;;;;;;164.55;157.88;;;;;;;16.32;56.22;101278.97;4949159;28;20090;-73
2023/10/14 10:21:30;;;;;;;167.95;161.13;;;;;;;16.32;55.79;101281.69;4949725;29;20074;-74
2023/10/14 10:24:09;;;;;;;162.23;155.45;;;;;;;16.34;56.15;101282.25;4950737;28;20042;-72
2023/10/14 10:27:04;;;;;;;171.10;164.00;;;;;;;16.34;56.12;101293.97;4933318;29;20034;-74
2023/10/14 10:29:41;;;;;;;163.68;156.82;;;;;;;16.33;56.30;101292.34;4944618;28;20373;-74
2023/10/14 10:32:09;;;;;;;170.88;163.88;;;;;;;16.33;56.62;101297.81;4946336;29;20046;-73
2023/10/14 10:35:06;;;;;;;172.07;164.30;;;;;;;16.34;56.57;101295.88;4939231;28;20055;-75
2023/10/14 10:37:54;;;;;;;164.07;157.35;;;;;;;16.34;56.49;101304.88;4949900;29;20479;-72
2023/10/14 10:40:28;;;;;;;164.43;157.68;;;;;;;16.32;56.60;101293.41;4937682;29;20078;-72
2023/10/14 10:42:55;;;;;;;169.50;162.52;;;;;;;16.33;56.81;101292.34;4948793;29;20027;-72
2023/10/14 10:45:23;;;;;;;166.90;160.15;;;;;;;16.32;56.69;101292.59;4949733;28;20042;-74
2023/10/14 10:47:52;;;;;;;170.25;163.13;;;;;;;16.30;56.16;101301.03;4959042;28;20381;-74
2023/10/14 10:50:18;;;;;;;164.52;157.80;;;;;;;16.29;56.45;101307.59;4948686;29;20111;-72
2023/10/14 10:53:11;;;;;;;170.38;163.45;;;;;;;16.30;56.87;101311.94;4947636;29;20483;-72
2023/10/14 10:55:40;;;;;;;165.48;158.48;;;;;;;16.28;56.63;101316.88;4948323;29;20495;-73
2023/10/14 10:58:11;;;;;;;164.55;157.55;;;;;;;16.26;56.33;101319.03;4940100;28;20050;-74
2023/10/14 11:00:38;;;;;;;165.07;157.82;;;;;;;16.27;56.47;101320.66;4947114;29;20458;-74
2023/10/14 11:03:04;;;;;;;166.32;159.35;;;;;;;16.28;56.72;101316.88;4939053;28;20384;-73
2023/10/14 11:05:33;;;;;;;172.98;166.00;;;;;;;16.27;54.48;101317.13;4948273;28;20047;-73
2023/10/14 11:08:00;;;;;;;169.68;162.77;;;;;;;16.26;54.79;101319.03;4947918;29;20028;-76
2023/10/14 11:10:27;;;;;;;167.90;161.05;;;;;;;16.26;54.08;101326.41;4932245;29;20039;-73
2023/10/14 11:12:59;;;;;;;174.20;167.18;;;;;;;16.26;54.27;101327.22;4932398;29;20043;-72
2023/10/14 11:15:26;;;;;;;171.80;164.88;;;;;;;16.24;54.70;101329.38;4943347;29;20069;-71
2023/10/14 11:17:57;;;;;;;183.20;175.50;;;;;;;16.23;54.83;101331.28;4948655;28;20036;-72
2023/10/14 11:20:26;;;;;;;173.27;165.98;;;;;;;16.23;54.68;101338.66;4948894;29;20035;-73
2023/10/14 11:22:55;;;;;;;168.80;161.90;;;;;;;16.21;54.86;101344.38;4948064;28;20065;-71
2023/10/14 11:25:21;;;;;;;177.55;169.70;;;;;;;16.21;54.99;101341.63;4936197;29;20223;-72
2023/10/14 11:27:47;;;;;;;167.05;160.20;;;;;;;16.22;55.57;101339.72;4934922;29;20066;-71
2023/10/14 11:30:14;;;;;;;177.05;169.43;;;;;;;16.23;55.42;101344.91;4936783;29;20643;-73
2023/10/14 11:32:51;;;;;;;164.88;158.13;;;;;;;16.23;55.63;101338.66;4941635;28;20042;-71
2023/10/14 11:35:22;;;;;;;170.40;162.80;;;;;;;16.24;55.53;101334.84;4940185;28;20106;-74
2023/10/14 11:37:56;;;;;;;168.18;161.23;;;;;;;16.27;55.96;101338.94;4947698;29;20023;-72
2023/10/14 11:40:26;;;;;;;167.68;160.45;;;;;;;16.26;55.47;101327.22;4951452;29;20054;-71
2023/10/14 11:42:55;;;;;;;166.90;160.07;;;;;;;16.27;55.61;101336.22;4947012;29;20039;-72
2023/10/14 11:45:21;;;;;;;169.90;162.80;;;;;;;16.28;55.82;101332.38;4951439;29;20045;-71
2023/10/14 11:47:46;;;;;;;166.65;159.55;;;;;;;16.29;56.07;101337.56;4950865;28;20039;-71
2023/10/14 11:50:12;;;;;;;168.10;161.05;;;;;;;16.27;55.89;101342.47;4946669;29;20117;-72
2023/10/14 11:52:42;;;;;;;160.05;153.45;;;;;;;16.22;55.87;101334.28;4943886;28;20046;-73